sensor_id;sensor_type;location;lat;lon;timestamp;pressure;altitude;pressure_sealevel;temperature;humidity
17649;BME280;8943;51.110;-4.158;2023-02-23T00:02:22;101294.59;;;11.03;55.66
17649;BME280;8943;51.110;-4.158;2023-02-23T00:04:51;101298.13;;;11.04;55.57
17649;BME280;8943;51.110;-4.158;2023-02-23T00:07:20;101300.66;;;11.05;55.68
17649;BME280;8943;51.110;-4.158;2023-02-23T00:09:48;101298.75;;;11.07;55.68
17649;BME280;8943;51.110;-4.158;2023-02-23T00:12:18;101308.47;;;11.08;55.45
17649;BME280;8943;51.110;-4.158;2023-02-23T00:14:46;101305.81;;;11.08;55.83
17649;BME280;8943;51.110;-4.158;2023-02-23T00:17:17;101301.41;;;11.07;55.67
17649;BME280;8943;51.110;-4.158;2023-02-23T00:19:46;101305.81;;;11.08;55.79
17649;BME280;8943;51.110;-4.158;2023-02-23T00:22:15;101293.41;;;11.07;55.85
17649;BME280;8943;51.110;-4.158;2023-02-23T00:24:44;101301.41;;;11.07;55.86
17649;BME280;8943;51.110;-4.158;2023-02-23T00:27:13;101305.03;;;11.06;55.82
17649;BME280;8943;51.110;-4.158;2023-02-23T00:29:44;101295.34;;;11.05;55.92
17649;BME280;8943;51.110;-4.158;2023-02-23T00:32:17;101294.47;;;11.05;56.03
17649;BME280;8943;51.110;-4.158;2023-02-23T00:34:47;101296.19;;;11.06;55.88
17649;BME280;8943;51.110;-4.158;2023-02-23T00:37:17;101292.84;;;11.02;56.08
17649;BME280;8943;51.110;-4.158;2023-02-23T00:39:49;101299.09;;;11.03;55.98
17649;BME280;8943;51.110;-4.158;2023-02-23T00:42:17;101293.75;;;11.03;55.70
17649;BME280;8943;51.110;-4.158;2023-02-23T00:44:46;101303.53;;;11.02;56.03
17649;BME280;8943;51.110;-4.158;2023-02-23T00:47:15;101297.47;;;11.00;55.75
17649;BME280;8943;51.110;-4.158;2023-02-23T00:49:43;101301.16;;;10.98;55.82
17649;BME280;8943;51.110;-4.158;2023-02-23T00:52:11;101294.97;;;10.97;56.08
17649;BME280;8943;51.110;-4.158;2023-02-23T00:54:41;101294.97;;;10.97;56.10
17649;BME280;8943;51.110;-4.158;2023-02-23T00:57:10;101296.25;;;10.92;55.88
17649;BME280;8943;51.110;-4.158;2023-02-23T00:59:39;101300.53;;;10.94;55.75
17649;BME280;8943;51.110;-4.158;2023-02-23T01:02:08;101292.63;;;10.93;56.07
17649;BME280;8943;51.110;-4.158;2023-02-23T01:04:36;101295.28;;;10.93;56.01
17649;BME280;8943;51.110;-4.158;2023-02-23T01:07:04;101285.69;;;10.90;55.70
17649;BME280;8943;51.110;-4.158;2023-02-23T01:09:32;101294.53;;;10.91;55.84
17649;BME280;8943;51.110;-4.158;2023-02-23T01:12:00;101293.88;;;10.87;55.60
17649;BME280;8943;51.110;-4.158;2023-02-23T01:14:35;101291.22;;;10.87;55.71
17649;BME280;8943;51.110;-4.158;2023-02-23T01:17:04;101292.06;;;10.88;55.81
17649;BME280;8943;51.110;-4.158;2023-02-23T01:19:33;101302.84;;;10.86;55.83
17649;BME280;8943;51.110;-4.158;2023-02-23T01:22:01;101293.03;;;10.87;55.85
17649;BME280;8943;51.110;-4.158;2023-02-23T01:24:29;101309.88;;;10.87;55.84
17649;BME280;8943;51.110;-4.158;2023-02-23T01:26:57;101298.47;;;10.85;55.79
17649;BME280;8943;51.110;-4.158;2023-02-23T01:29:25;101295.91;;;10.83;56.04
17649;BME280;8943;51.110;-4.158;2023-02-23T01:31:55;101297.69;;;10.83;55.79
17649;BME280;8943;51.110;-4.158;2023-02-23T01:34:24;101304.75;;;10.84;55.94
17649;BME280;8943;51.110;-4.158;2023-02-23T01:36:52;101293.44;;;10.80;56.01
17649;BME280;8943;51.110;-4.158;2023-02-23T01:39:20;101297.91;;;10.80;56.07
17649;BME280;8943;51.110;-4.158;2023-02-23T01:41:49;101306.66;;;10.82;55.65
17649;BME280;8943;51.110;-4.158;2023-02-23T01:47:26;101302.69;;;10.75;56.05
17649;BME280;8943;51.110;-4.158;2023-02-23T01:49:55;101308.03;;;10.75;55.89
17649;BME280;8943;51.110;-4.158;2023-02-23T01:52:27;101312.28;;;10.77;55.90
17649;BME280;8943;51.110;-4.158;2023-02-23T01:54:55;101321.13;;;10.78;55.83
17649;BME280;8943;51.110;-4.158;2023-02-23T01:57:24;101330.00;;;10.78;56.05
17649;BME280;8943;51.110;-4.158;2023-02-23T01:59:52;101326.47;;;10.78;55.70
17649;BME280;8943;51.110;-4.158;2023-02-23T02:02:24;101338.75;;;10.80;55.98
17649;BME280;8943;51.110;-4.158;2023-02-23T02:05:00;101331.78;;;10.78;55.83
17649;BME280;8943;51.110;-4.158;2023-02-23T02:07:31;101327.41;;;10.77;55.48
17649;BME280;8943;51.110;-4.158;2023-02-23T02:10:01;101330.09;;;10.77;55.44
17649;BME280;8943;51.110;-4.158;2023-02-23T02:13:06;101331.16;;;10.74;55.82
17649;BME280;8943;51.110;-4.158;2023-02-23T02:15:42;101337.34;;;10.75;55.47
17649;BME280;8943;51.110;-4.158;2023-02-23T02:18:24;101330.19;;;10.75;55.56
17649;BME280;8943;51.110;-4.158;2023-02-23T02:21:19;101330.09;;;10.77;55.81
17649;BME280;8943;51.110;-4.158;2023-02-23T02:26:52;101338.84;;;10.79;55.83
17649;BME280;8943;51.110;-4.158;2023-02-23T02:29:44;101346.63;;;10.82;55.53
17649;BME280;8943;51.110;-4.158;2023-02-23T02:32:44;101343.69;;;10.87;55.78
17649;BME280;8943;51.110;-4.158;2023-02-23T02:35:43;101347.31;;;10.86;55.61
17649;BME280;8943;51.110;-4.158;2023-02-23T02:38:32;101350.81;;;10.86;55.71
17649;BME280;8943;51.110;-4.158;2023-02-23T02:41:09;101361.38;;;10.88;55.89
17649;BME280;8943;51.110;-4.158;2023-02-23T02:43:47;101365.84;;;10.87;55.41
17649;BME280;8943;51.110;-4.158;2023-02-23T02:46:21;101372.88;;;10.88;55.62
17649;BME280;8943;51.110;-4.158;2023-02-23T02:48:58;101368.63;;;10.86;55.46
17649;BME280;8943;51.110;-4.158;2023-02-23T02:51:32;101356.25;;;10.85;55.43
17649;BME280;8943;51.110;-4.158;2023-02-23T02:54:08;101366.06;;;10.84;55.50
17649;BME280;8943;51.110;-4.158;2023-02-23T02:56:40;101360.63;;;10.86;55.34
17649;BME280;8943;51.110;-4.158;2023-02-23T02:59:13;101367.56;;;10.88;55.58
17649;BME280;8943;51.110;-4.158;2023-02-23T03:01:59;101376.44;;;10.89;55.40
17649;BME280;8943;51.110;-4.158;2023-02-23T03:04:46;101371.13;;;10.89;55.50
17649;BME280;8943;51.110;-4.158;2023-02-23T03:07:37;101371.00;;;10.90;55.28
17649;BME280;8943;51.110;-4.158;2023-02-23T03:10:33;101372.59;;;10.93;55.49
17649;BME280;8943;51.110;-4.158;2023-02-23T03:13:29;101369.84;;;10.94;55.57
17649;BME280;8943;51.110;-4.158;2023-02-23T03:16:24;101370.72;;;10.95;55.44
17649;BME280;8943;51.110;-4.158;2023-02-23T03:19:19;101369.94;;;10.93;55.64
17649;BME280;8943;51.110;-4.158;2023-02-23T03:22:15;101380.53;;;10.94;55.64
17649;BME280;8943;51.110;-4.158;2023-02-23T03:25:06;101376.72;;;10.98;55.19
17649;BME280;8943;51.110;-4.158;2023-02-23T03:28:03;101374.22;;;10.95;55.61
17649;BME280;8943;51.110;-4.158;2023-02-23T03:30:57;101364.53;;;10.94;55.36
17649;BME280;8943;51.110;-4.158;2023-02-23T03:33:54;101370.72;;;10.95;55.54
17649;BME280;8943;51.110;-4.158;2023-02-23T03:36:46;101371.75;;;10.92;55.30
17649;BME280;8943;51.110;-4.158;2023-02-23T03:39:36;101378.16;;;10.90;55.19
17649;BME280;8943;51.110;-4.158;2023-02-23T03:42:29;101376.63;;;10.86;55.20
17649;BME280;8943;51.110;-4.158;2023-02-23T03:45:20;101378.56;;;10.83;55.37
17649;BME280;8943;51.110;-4.158;2023-02-23T03:48:09;101375.97;;;10.82;55.18
17649;BME280;8943;51.110;-4.158;2023-02-23T03:50:59;101384.06;;;10.80;55.59
17649;BME280;8943;51.110;-4.158;2023-02-23T03:53:50;101393.66;;;10.83;55.22
17649;BME280;8943;51.110;-4.158;2023-02-23T03:56:40;101393.78;;;10.81;55.37
17649;BME280;8943;51.110;-4.158;2023-02-23T03:59:30;101399.22;;;10.80;55.42
17649;BME280;8943;51.110;-4.158;2023-02-23T04:02:21;101394.72;;;10.80;55.38
17649;BME280;8943;51.110;-4.158;2023-02-23T04:05:12;101399.94;;;10.82;55.22
17649;BME280;8943;51.110;-4.158;2023-02-23T04:08:01;101402.63;;;10.82;55.26
17649;BME280;8943;51.110;-4.158;2023-02-23T04:10:53;101399.00;;;10.83;55.47
17649;BME280;8943;51.110;-4.158;2023-02-23T04:13:45;101400.50;;;10.87;55.53
17649;BME280;8943;51.110;-4.158;2023-02-23T04:16:14;101404.69;;;10.91;55.44
17649;BME280;8943;51.110;-4.158;2023-02-23T04:18:43;101404.41;;;10.96;55.03
17649;BME280;8943;51.110;-4.158;2023-02-23T04:21:11;101406.97;;;10.97;54.81
17649;BME280;8943;51.110;-4.158;2023-02-23T04:23:42;101414.88;;;10.99;55.03
17649;BME280;8943;51.110;-4.158;2023-02-23T04:26:10;101409.75;;;10.96;55.13
17649;BME280;8943;51.110;-4.158;2023-02-23T04:28:39;101423.19;;;10.94;55.13
17649;BME280;8943;51.110;-4.158;2023-02-23T04:31:07;101423.19;;;10.94;55.08
17649;BME280;8943;51.110;-4.158;2023-02-23T04:33:36;101422.97;;;10.97;55.22
17649;BME280;8943;51.110;-4.158;2023-02-23T04:36:07;101413.16;;;10.98;55.04
17649;BME280;8943;51.110;-4.158;2023-02-23T04:38:35;101423.81;;;10.98;54.91
17649;BME280;8943;51.110;-4.158;2023-02-23T04:41:04;101417.84;;;10.94;55.10
17649;BME280;8943;51.110;-4.158;2023-02-23T04:43:32;101418.03;;;10.91;55.01
17649;BME280;8943;51.110;-4.158;2023-02-23T04:46:00;101423.56;;;10.88;54.86
17649;BME280;8943;51.110;-4.158;2023-02-23T04:48:28;101434.44;;;10.85;54.90
17649;BME280;8943;51.110;-4.158;2023-02-23T04:50:58;101430.97;;;10.83;55.06
17649;BME280;8943;51.110;-4.158;2023-02-23T04:53:27;101429.50;;;10.79;55.03
17649;BME280;8943;51.110;-4.158;2023-02-23T04:55:56;101437.50;;;10.79;55.37
17649;BME280;8943;51.110;-4.158;2023-02-23T04:58:24;101430.81;;;10.72;54.93
17649;BME280;8943;51.110;-4.158;2023-02-23T05:00:52;101436.25;;;10.70;55.13
17649;BME280;8943;51.110;-4.158;2023-02-23T05:03:20;101435.47;;;10.68;55.04
17649;BME280;8943;51.110;-4.158;2023-02-23T05:05:49;101443.47;;;10.68;55.33
17649;BME280;8943;51.110;-4.158;2023-02-23T05:08:17;101451.47;;;10.68;55.08
17649;BME280;8943;51.110;-4.158;2023-02-23T05:10:46;101448.06;;;10.66;55.10
17649;BME280;8943;51.110;-4.158;2023-02-23T05:13:14;101445.38;;;10.66;55.42
17649;BME280;8943;51.110;-4.158;2023-02-23T05:15:42;101454.22;;;10.67;55.34
17649;BME280;8943;51.110;-4.158;2023-02-23T05:18:11;101446.41;;;10.64;55.24
17649;BME280;8943;51.110;-4.158;2023-02-23T05:20:41;101454.22;;;10.67;55.42
17649;BME280;8943;51.110;-4.158;2023-02-23T05:23:12;101449.00;;;10.65;55.13
17649;BME280;8943;51.110;-4.158;2023-02-23T05:25:40;101451.66;;;10.65;55.48
17649;BME280;8943;51.110;-4.158;2023-02-23T05:28:10;101463.09;;;10.67;55.24
17649;BME280;8943;51.110;-4.158;2023-02-23T05:30:38;101469.25;;;10.68;54.92
17649;BME280;8943;51.110;-4.158;2023-02-23T05:33:06;101465.75;;;10.67;55.32
17649;BME280;8943;51.110;-4.158;2023-02-23T05:35:34;101471.84;;;10.69;55.41
17649;BME280;8943;51.110;-4.158;2023-02-23T05:38:02;101478.91;;;10.70;54.97
17649;BME280;8943;51.110;-4.158;2023-02-23T05:40:31;101476.13;;;10.72;55.04
17649;BME280;8943;51.110;-4.158;2023-02-23T05:43:00;101472.72;;;10.70;55.15
17649;BME280;8943;51.110;-4.158;2023-02-23T05:45:30;101479.75;;;10.71;55.19
17649;BME280;8943;51.110;-4.158;2023-02-23T05:47:59;101479.75;;;10.71;55.30
17649;BME280;8943;51.110;-4.158;2023-02-23T05:50:27;101481.66;;;10.69;55.37
17649;BME280;8943;51.110;-4.158;2023-02-23T05:52:55;101477.38;;;10.66;55.18
17649;BME280;8943;51.110;-4.158;2023-02-23T05:55:26;101471.19;;;10.66;55.38
17649;BME280;8943;51.110;-4.158;2023-02-23T05:57:55;101479.00;;;10.69;55.20
17649;BME280;8943;51.110;-4.158;2023-02-23T06:00:23;101486.78;;;10.72;55.17
17649;BME280;8943;51.110;-4.158;2023-02-23T06:02:53;101479.75;;;10.71;55.13
17649;BME280;8943;51.110;-4.158;2023-02-23T06:05:22;101486.69;;;10.73;55.10
17649;BME280;8943;51.110;-4.158;2023-02-23T06:07:50;101487.56;;;10.74;54.98
17649;BME280;8943;51.110;-4.158;2023-02-23T06:10:19;101489.16;;;10.76;55.11
17649;BME280;8943;51.110;-4.158;2023-02-23T06:12:47;101491.72;;;10.78;55.13
17649;BME280;8943;51.110;-4.158;2023-02-23T06:15:15;101492.50;;;10.80;54.84
17649;BME280;8943;51.110;-4.158;2023-02-23T06:17:44;101487.94;;;10.82;55.33
17649;BME280;8943;51.110;-4.158;2023-02-23T06:20:13;101489.75;;;10.81;55.23
17649;BME280;8943;51.110;-4.158;2023-02-23T06:22:41;101494.97;;;10.83;55.21
17649;BME280;8943;51.110;-4.158;2023-02-23T06:25:10;101498.50;;;10.83;54.97
17649;BME280;8943;51.110;-4.158;2023-02-23T06:27:39;101495.91;;;10.82;55.07
17649;BME280;8943;51.110;-4.158;2023-02-23T06:30:09;101494.97;;;10.83;54.85
17649;BME280;8943;51.110;-4.158;2023-02-23T06:32:37;101494.78;;;10.86;54.95
17649;BME280;8943;51.110;-4.158;2023-02-23T06:35:07;101500.88;;;10.88;54.97
17649;BME280;8943;51.110;-4.158;2023-02-23T06:37:36;101507.16;;;10.87;55.19
17649;BME280;8943;51.110;-4.158;2023-02-23T06:40:06;101500.97;;;10.87;54.75
17649;BME280;8943;51.110;-4.158;2023-02-23T06:42:34;101508.00;;;10.88;55.25
17649;BME280;8943;51.110;-4.158;2023-02-23T06:45:06;101510.59;;;10.89;55.17
17649;BME280;8943;51.110;-4.158;2023-02-23T06:47:35;101515.16;;;10.87;55.09
17649;BME280;8943;51.110;-4.158;2023-02-23T06:50:03;101508.13;;;10.86;54.90
17649;BME280;8943;51.110;-4.158;2023-02-23T06:52:32;101511.91;;;10.82;54.75
17649;BME280;8943;51.110;-4.158;2023-02-23T06:55:02;101514.59;;;10.82;55.26
17649;BME280;8943;51.110;-4.158;2023-02-23T06:57:30;101514.59;;;10.82;55.02
17649;BME280;8943;51.110;-4.158;2023-02-23T06:59:58;101520.88;;;10.81;55.15
17649;BME280;8943;51.110;-4.158;2023-02-23T07:02:27;101517.34;;;10.80;55.30
17649;BME280;8943;51.110;-4.158;2023-02-23T07:04:55;101513.84;;;10.80;54.85
17649;BME280;8943;51.110;-4.158;2023-02-23T07:07:24;101520.97;;;10.79;54.94
17649;BME280;8943;51.110;-4.158;2023-02-23T07:09:52;101511.16;;;10.80;55.13
17649;BME280;8943;51.110;-4.158;2023-02-23T07:12:25;101525.25;;;10.82;55.12
17649;BME280;8943;51.110;-4.158;2023-02-23T07:14:53;101531.53;;;10.81;54.86
17649;BME280;8943;51.110;-4.158;2023-02-23T07:17:21;101523.53;;;10.81;55.07
17649;BME280;8943;51.110;-4.158;2023-02-23T07:19:49;101528.88;;;10.81;55.42
17649;BME280;8943;51.110;-4.158;2023-02-23T07:22:18;101534.94;;;10.83;55.46
17649;BME280;8943;51.110;-4.158;2023-02-23T07:24:47;101535.72;;;10.85;55.31
17649;BME280;8943;51.110;-4.158;2023-02-23T07:27:15;101545.53;;;10.85;55.13
17649;BME280;8943;51.110;-4.158;2023-02-23T07:29:45;101549.91;;;10.86;55.33
17649;BME280;8943;51.110;-4.158;2023-02-23T07:32:14;101559.44;;;10.90;55.67
17649;BME280;8943;51.110;-4.158;2023-02-23T07:34:42;101556.56;;;10.93;55.50
17649;BME280;8943;51.110;-4.158;2023-02-23T07:37:11;101552.97;;;10.94;55.60
17649;BME280;8943;51.110;-4.158;2023-02-23T07:39:40;101560.69;;;10.98;55.20
17649;BME280;8943;51.110;-4.158;2023-02-23T07:42:08;101556.97;;;11.01;55.50
17649;BME280;8943;51.110;-4.158;2023-02-23T07:44:37;101551.47;;;11.04;55.24
17649;BME280;8943;51.110;-4.158;2023-02-23T07:47:07;101558.41;;;11.06;55.14
17649;BME280;8943;51.110;-4.158;2023-02-23T07:49:35;101560.88;;;11.09;55.60
17649;BME280;8943;51.110;-4.158;2023-02-23T07:52:03;101564.28;;;11.12;54.83
17649;BME280;8943;51.110;-4.158;2023-02-23T07:54:31;101568.69;;;11.13;55.01
17649;BME280;8943;51.110;-4.158;2023-02-23T07:57:00;101573.72;;;11.17;54.96
17649;BME280;8943;51.110;-4.158;2023-02-23T07:59:28;101577.16;;;11.19;54.90
17649;BME280;8943;51.110;-4.158;2023-02-23T08:01:57;101580.59;;;11.21;54.81
17649;BME280;8943;51.110;-4.158;2023-02-23T08:04:28;101580.31;;;11.26;55.08
17649;BME280;8943;51.110;-4.158;2023-02-23T08:06:57;101589.66;;;11.33;54.76
17649;BME280;8943;51.110;-4.158;2023-02-23T08:09:25;101602.72;;;11.38;54.87
17649;BME280;8943;51.110;-4.158;2023-02-23T08:11:53;101606.97;;;11.40;54.71
17649;BME280;8943;51.110;-4.158;2023-02-23T08:14:22;101596.69;;;11.48;54.69
17649;BME280;8943;51.110;-4.158;2023-02-23T08:16:50;101593.63;;;11.54;54.64
17649;BME280;8943;51.110;-4.158;2023-02-23T08:19:18;101614.41;;;11.64;54.53
17649;BME280;8943;51.110;-4.158;2023-02-23T08:21:49;101597.13;;;11.69;54.42
17649;BME280;8943;51.110;-4.158;2023-02-23T08:24:18;101604.94;;;11.72;54.10
17649;BME280;8943;51.110;-4.158;2023-02-23T08:26:46;101602.28;;;11.72;53.69
17649;BME280;8943;51.110;-4.158;2023-02-23T08:29:16;101598.81;;;11.70;53.89
17649;BME280;8943;51.110;-4.158;2023-02-23T08:31:44;101618.38;;;11.71;53.97
17649;BME280;8943;51.110;-4.158;2023-02-23T08:34:12;101609.44;;;11.72;53.66
17649;BME280;8943;51.110;-4.158;2023-02-23T08:36:41;101621.03;;;11.71;53.62
17649;BME280;8943;51.110;-4.158;2023-02-23T08:39:14;101638.03;;;11.70;53.71
17649;BME280;8943;51.110;-4.158;2023-02-23T08:41:42;101625.44;;;11.72;53.86
17649;BME280;8943;51.110;-4.158;2023-02-23T08:44:10;101631.25;;;11.78;53.91
17649;BME280;8943;51.110;-4.158;2023-02-23T08:46:38;101631.84;;;11.83;53.53
17649;BME280;8943;51.110;-4.158;2023-02-23T08:49:06;101628.88;;;11.88;53.40
17649;BME280;8943;51.110;-4.158;2023-02-23T08:51:36;101633.25;;;11.89;53.51
17649;BME280;8943;51.110;-4.158;2023-02-23T08:54:04;101633.25;;;11.89;53.57
17649;BME280;8943;51.110;-4.158;2023-02-23T08:56:39;101635.91;;;11.89;53.43
17649;BME280;8943;51.110;-4.158;2023-02-23T08:59:08;101632.97;;;11.94;53.44
17649;BME280;8943;51.110;-4.158;2023-02-23T09:01:36;101646.41;;;11.92;53.18
17649;BME280;8943;51.110;-4.158;2023-02-23T09:04:05;101649.84;;;11.94;53.12
17649;BME280;8943;51.110;-4.158;2023-02-23T09:06:33;101640.13;;;11.93;53.01
17649;BME280;8943;51.110;-4.158;2023-02-23T09:09:02;101657.56;;;11.99;53.16
17649;BME280;8943;51.110;-4.158;2023-02-23T09:11:30;101652.03;;;12.02;52.81
17649;BME280;8943;51.110;-4.158;2023-02-23T09:14:00;101652.69;;;12.05;52.77
17649;BME280;8943;51.110;-4.158;2023-02-23T09:16:28;101666.69;;;12.09;52.74
17649;BME280;8943;51.110;-4.158;2023-02-23T09:18:59;101659.34;;;12.13;52.58
17649;BME280;8943;51.110;-4.158;2023-02-23T09:21:27;101654.00;;;12.13;52.53
17649;BME280;8943;51.110;-4.158;2023-02-23T09:23:56;101664.00;;;12.09;52.42
17649;BME280;8943;51.110;-4.158;2023-02-23T09:26:25;101665.72;;;12.10;52.30
17649;BME280;8943;51.110;-4.158;2023-02-23T09:28:54;101661.03;;;12.14;52.35
17649;BME280;8943;51.110;-4.158;2023-02-23T09:31:26;101666.38;;;12.14;52.14
17649;BME280;8943;51.110;-4.158;2023-02-23T09:33:54;101669.31;;;12.23;52.12
17649;BME280;8943;51.110;-4.158;2023-02-23T09:36:24;101678.25;;;12.36;52.35
17649;BME280;8943;51.110;-4.158;2023-02-23T09:38:54;101672.38;;;12.44;52.10
17649;BME280;8943;51.110;-4.158;2023-02-23T09:41:40;101675.97;;;12.57;51.96
17649;BME280;8943;51.110;-4.158;2023-02-23T09:44:20;101662.09;;;12.65;51.85
17649;BME280;8943;51.110;-4.158;2023-02-23T09:47:02;101661.78;;;12.70;51.71
17649;BME280;8943;51.110;-4.158;2023-02-23T09:49:36;101666.84;;;12.74;51.19
17649;BME280;8943;51.110;-4.158;2023-02-23T09:52:09;101663.06;;;12.77;50.76
17649;BME280;8943;51.110;-4.158;2023-02-23T09:54:42;101666.53;;;12.79;50.72
17649;BME280;8943;51.110;-4.158;2023-02-23T09:57:13;101673.47;;;12.81;50.41
17649;BME280;8943;51.110;-4.158;2023-02-23T09:59:43;101661.50;;;12.87;50.26
17649;BME280;8943;51.110;-4.158;2023-02-23T10:02:22;101657.09;;;12.86;50.11
17649;BME280;8943;51.110;-4.158;2023-02-23T10:04:56;101654.56;;;12.84;49.50
17649;BME280;8943;51.110;-4.158;2023-02-23T10:07:33;101665.13;;;12.86;49.57
17649;BME280;8943;51.110;-4.158;2023-02-23T10:10:19;101669.63;;;12.85;49.25
17649;BME280;8943;51.110;-4.158;2023-02-23T10:12:53;101670.38;;;12.87;49.18
17649;BME280;8943;51.110;-4.158;2023-02-23T10:15:31;101673.50;;;12.94;48.96
17649;BME280;8943;51.110;-4.158;2023-02-23T10:18:12;101676.50;;;13.02;48.78
17649;BME280;8943;51.110;-4.158;2023-02-23T10:20:50;101682.38;;;13.07;48.64
17649;BME280;8943;51.110;-4.158;2023-02-23T10:23:27;101665.63;;;13.18;48.79
17649;BME280;8943;51.110;-4.158;2023-02-23T10:25:58;101682.31;;;13.22;48.46
17649;BME280;8943;51.110;-4.158;2023-02-23T10:28:33;101675.47;;;13.30;48.22
17649;BME280;8943;51.110;-4.158;2023-02-23T10:31:03;101679.47;;;13.37;48.26
17649;BME280;8943;51.110;-4.158;2023-02-23T10:33:39;101695.19;;;13.42;47.79
17649;BME280;8943;51.110;-4.158;2023-02-23T10:36:12;101691.56;;;13.43;47.71
17649;BME280;8943;51.110;-4.158;2023-02-23T10:38:44;101689.41;;;13.48;47.39
17649;BME280;8943;51.110;-4.158;2023-02-23T10:41:13;101699.34;;;13.46;47.33
17649;BME280;8943;51.110;-4.158;2023-02-23T10:43:41;101691.13;;;13.49;47.30
17649;BME280;8943;51.110;-4.158;2023-02-23T10:46:17;101694.75;;;13.48;46.93
17649;BME280;8943;51.110;-4.158;2023-02-23T10:48:49;101699.69;;;13.54;47.68
17649;BME280;8943;51.110;-4.158;2023-02-23T10:51:26;101701.84;;;13.62;47.02
17649;BME280;8943;51.110;-4.158;2023-02-23T10:53:55;101708.03;;;13.62;46.98
17649;BME280;8943;51.110;-4.158;2023-02-23T10:56:42;101709.53;;;13.67;46.89
17649;BME280;8943;51.110;-4.158;2023-02-23T10:59:17;101711.78;;;13.73;46.69
17649;BME280;8943;51.110;-4.158;2023-02-23T11:01:46;101710.28;;;13.81;46.45
17649;BME280;8943;51.110;-4.158;2023-02-23T11:04:30;101724.28;;;13.85;46.29
17649;BME280;8943;51.110;-4.158;2023-02-23T11:07:08;101721.72;;;13.83;45.94
17649;BME280;8943;51.110;-4.158;2023-02-23T11:09:42;101721.59;;;13.85;45.90
17649;BME280;8943;51.110;-4.158;2023-02-23T11:12:18;101726.03;;;13.86;45.53
17649;BME280;8943;51.110;-4.158;2023-02-23T11:14:49;101723.56;;;13.83;45.71
17649;BME280;8943;51.110;-4.158;2023-02-23T11:17:30;101731.59;;;13.83;45.64
17649;BME280;8943;51.110;-4.158;2023-02-23T11:20:03;101733.09;;;13.87;45.73
17649;BME280;8943;51.110;-4.158;2023-02-23T11:22:34;101723.63;;;13.94;45.57
17649;BME280;8943;51.110;-4.158;2023-02-23T11:25:13;101735.41;;;14.04;45.36
17649;BME280;8943;51.110;-4.158;2023-02-23T11:27:46;101731.09;;;14.14;45.30
17649;BME280;8943;51.110;-4.158;2023-02-23T11:30:20;101736.41;;;14.27;45.23
17649;BME280;8943;51.110;-4.158;2023-02-23T11:32:50;101728.88;;;14.45;45.46
17649;BME280;8943;51.110;-4.158;2023-02-23T11:35:30;101719.06;;;14.57;45.14
17649;BME280;8943;51.110;-4.158;2023-02-23T11:37:58;101728.53;;;14.74;45.07
17649;BME280;8943;51.110;-4.158;2023-02-23T11:40:28;101726.78;;;14.85;44.81
17649;BME280;8943;51.110;-4.158;2023-02-23T11:43:07;101721.78;;;14.92;44.34
17649;BME280;8943;51.110;-4.158;2023-02-23T11:45:38;101723.16;;;14.98;44.19
17649;BME280;8943;51.110;-4.158;2023-02-23T11:48:18;101718.53;;;15.00;44.16
17649;BME280;8943;51.110;-4.158;2023-02-23T11:50:49;101717.44;;;15.02;43.91
17649;BME280;8943;51.110;-4.158;2023-02-23T11:53:22;101717.44;;;15.02;43.98
17649;BME280;8943;51.110;-4.158;2023-02-23T11:55:56;101709.72;;;14.98;43.71
17649;BME280;8943;51.110;-4.158;2023-02-23T11:58:34;101711.91;;;14.92;43.56
17649;BME280;8943;51.110;-4.158;2023-02-23T12:01:06;101705.31;;;14.85;43.32
17649;BME280;8943;51.110;-4.158;2023-02-23T12:03:43;101701.63;;;14.75;43.34
17649;BME280;8943;51.110;-4.158;2023-02-23T12:06:26;101700.59;;;14.65;43.34
17649;BME280;8943;51.110;-4.158;2023-02-23T12:08:59;101712.97;;;14.55;43.19
17649;BME280;8943;51.110;-4.158;2023-02-23T12:11:33;101707.84;;;14.39;43.24
17649;BME280;8943;51.110;-4.158;2023-02-23T12:14:09;101696.34;;;14.26;43.56
17649;BME280;8943;51.110;-4.158;2023-02-23T12:16:41;101699.56;;;14.18;43.41
17649;BME280;8943;51.110;-4.158;2023-02-23T12:19:23;101692.94;;;14.11;43.69
17649;BME280;8943;51.110;-4.158;2023-02-23T12:21:59;101691.66;;;14.04;43.70
17649;BME280;8943;51.110;-4.158;2023-02-23T12:24:38;101692.97;;;13.98;43.59
17649;BME280;8943;51.110;-4.158;2023-02-23T12:27:12;101692.44;;;13.93;43.52
17649;BME280;8943;51.110;-4.158;2023-02-23T12:29:57;101696.84;;;13.94;43.64
17649;BME280;8943;51.110;-4.158;2023-02-23T12:32:41;101698.13;;;13.88;43.34
17649;BME280;8943;51.110;-4.158;2023-02-23T12:35:15;101691.28;;;13.84;43.55
17649;BME280;8943;51.110;-4.158;2023-02-23T12:37:52;101690.63;;;13.81;43.47
17649;BME280;8943;51.110;-4.158;2023-02-23T12:40:26;101675.78;;;13.77;43.48
17649;BME280;8943;51.110;-4.158;2023-02-23T12:43:01;101682.97;;;13.76;43.74
17649;BME280;8943;51.110;-4.158;2023-02-23T12:45:36;101675.66;;;13.78;43.47
17649;BME280;8943;51.110;-4.158;2023-02-23T12:48:14;101685.28;;;13.81;43.66
17649;BME280;8943;51.110;-4.158;2023-02-23T12:50:50;101674.56;;;13.81;43.57
17649;BME280;8943;51.110;-4.158;2023-02-23T12:53:25;101672.00;;;13.79;43.68
17649;BME280;8943;51.110;-4.158;2023-02-23T12:56:21;101678.66;;;13.74;43.32
17649;BME280;8943;51.110;-4.158;2023-02-23T12:58:58;101680.81;;;13.69;43.48
17649;BME280;8943;51.110;-4.158;2023-02-23T13:01:35;101682.75;;;13.67;43.35
17649;BME280;8943;51.110;-4.158;2023-02-23T13:04:16;101683.69;;;13.65;43.65
17649;BME280;8943;51.110;-4.158;2023-02-23T13:06:56;101673.22;;;13.62;43.60
17649;BME280;8943;51.110;-4.158;2023-02-23T13:09:43;101679.97;;;13.68;43.98
17649;BME280;8943;51.110;-4.158;2023-02-23T13:12:19;101668.28;;;13.69;43.50
17649;BME280;8943;51.110;-4.158;2023-02-23T13:14:55;101664.09;;;13.78;43.56
17649;BME280;8943;51.110;-4.158;2023-02-23T13:17:31;101661.94;;;13.83;43.60
17649;BME280;8943;51.110;-4.158;2023-02-23T13:20:12;101656.78;;;13.80;42.93
17649;BME280;8943;51.110;-4.158;2023-02-23T13:22:47;101648.66;;;13.81;43.11
17649;BME280;8943;51.110;-4.158;2023-02-23T13:25:28;101648.41;;;13.84;43.06
17649;BME280;8943;51.110;-4.158;2023-02-23T13:28:02;101652.25;;;13.93;43.22
17649;BME280;8943;51.110;-4.158;2023-02-23T13:30:30;101642.78;;;14.00;43.45